Time;durP1;ratioP1;P1;durP2;ratioP2;P2;SDS_P1;SDS_P2;PMS_P1;PMS_P2;Temp;Humidity;BMP_temperature;BMP_pressure;BME280_temperature;BME280_humidity;BME280_pressure;Samples;Min_cycle;Max_cycle;Signal;HPM_P1;HPM_P2
2021/05/22 00:00:00;;;;;;;4.97;1.60;;;14.90;61.60;;;;;;5049300;28;20040;-71
2021/05/22 00:02:27;;;;;;;6.03;1.58;;;14.90;61.80;;;;;;5071468;28;20064;-72
2021/05/22 00:04:52;;;;;;;7.93;2.10;;;14.90;61.90;;;;;;5031832;28;20021;-71
2021/05/22 00:07:18;;;;;;;7.45;2.45;;;14.90;62.20;;;;;;5056823;28;20052;-71
2021/05/22 00:09:47;;;;;;;5.25;2.28;;;14.90;62.30;;;;;;5055299;28;20040;-71
2021/05/22 00:12:13;;;;;;;8.55;2.17;;;14.90;62.20;;;;;;5049075;28;20103;-71
2021/05/22 00:14:40;;;;;;;7.65;2.58;;;14.90;62.20;;;;;;5060251;28;20053;-70
2021/05/22 00:17:05;;;;;;;6.18;1.85;;;14.90;62.30;;;;;;5057373;28;20044;-71
2021/05/22 00:19:31;;;;;;;5.82;2.00;;;14.90;62.10;;;;;;5052891;28;20041;-72
2021/05/22 00:21:57;;;;;;;7.97;2.10;;;15.00;62.70;;;;;;5048012;28;20049;-71
2021/05/22 00:24:22;;;;;;;7.03;1.95;;;14.90;61.80;;;;;;5048316;28;20048;-71
2021/05/22 00:26:48;;;;;;;8.32;2.53;;;14.90;61.70;;;;;;5049457;28;20029;-70
2021/05/22 00:29:14;;;;;;;7.93;2.55;;;14.90;61.60;;;;;;5054869;28;20086;-71
2021/05/22 00:31:39;;;;;;;8.82;2.63;;;15.00;61.40;;;;;;5034121;28;20032;-72
2021/05/22 00:34:05;;;;;;;8.05;2.05;;;15.00;61.30;;;;;;5048830;28;20341;-70
2021/05/22 00:36:31;;;;;;;5.30;1.65;;;14.90;61.10;;;;;;5068569;28;20128;-71
2021/05/22 00:38:57;;;;;;;5.00;1.80;;;14.90;61.30;;;;;;5054512;28;20337;-71
2021/05/22 00:41:23;;;;;;;8.57;2.42;;;14.90;61.10;;;;;;5058893;28;20021;-71
2021/05/22 00:43:48;;;;;;;9.13;1.95;;;14.90;60.80;;;;;;5063674;28;20466;-71
2021/05/22 00:46:14;;;;;;;6.68;1.95;;;15.00;60.70;;;;;;5054499;28;20028;-71
2021/05/22 00:48:40;;;;;;;4.55;2.10;;;15.00;60.50;;;;;;5065673;28;20029;-71
2021/05/22 00:51:06;;;;;;;7.55;1.73;;;15.00;60.30;;;;;;5052559;28;20295;-70
2021/05/22 00:53:32;;;;;;;5.75;1.92;;;15.00;60.00;;;;;;5047446;28;20056;-70
2021/05/22 00:55:58;;;;;;;5.97;2.25;;;15.10;59.90;;;;;;5054486;28;20048;-71
2021/05/22 00:58:24;;;;;;;6.78;2.20;;;15.10;59.80;;;;;;5062588;28;20029;-72
2021/05/22 01:00:53;;;;;;;10.18;2.47;;;15.10;59.80;;;;;;5058061;28;20040;-71
2021/05/22 01:03:28;;;;;;;6.55;2.17;;;15.10;59.70;;;;;;5055029;28;20481;-71
2021/05/22 01:06:15;;;;;;;6.60;1.65;;;15.10;59.60;;;;;;5056658;28;20431;-72
2021/05/22 01:08:45;;;;;;;6.82;2.25;;;15.00;59.70;;;;;;5052654;28;20032;-71
2021/05/22 01:11:18;;;;;;;9.60;2.33;;;15.10;59.60;;;;;;5052821;28;20552;-71
2021/05/22 01:13:49;;;;;;;9.05;2.90;;;15.00;59.50;;;;;;5062831;28;20044;-71
2021/05/22 01:16:18;;;;;;;7.35;2.13;;;15.00;59.40;;;;;;5054353;28;20036;-71
2021/05/22 01:18:45;;;;;;;5.13;1.73;;;15.00;59.40;;;;;;5051390;28;20033;-71
2021/05/22 01:21:11;;;;;;;8.88;2.10;;;15.00;59.30;;;;;;5057698;28;20033;-70
2021/05/22 01:23:51;;;;;;;6.03;1.60;;;15.00;59.40;;;;;;5053119;28;20080;-71
2021/05/22 01:26:18;;;;;;;5.72;2.05;;;15.00;59.40;;;;;;5056299;28;20154;-71
2021/05/22 01:28:44;;;;;;;6.78;1.70;;;15.00;59.40;;;;;;5059471;28;20054;-71
2021/05/22 01:31:10;;;;;;;8.18;2.50;;;15.00;59.30;;;;;;5057657;28;20040;-70
2021/05/22 01:33:36;;;;;;;9.73;2.28;;;15.00;59.20;;;;;;5052715;28;20076;-71
2021/05/22 01:36:03;;;;;;;6.85;1.75;;;15.00;59.30;;;;;;5053051;28;20143;-71
2021/05/22 01:38:28;;;;;;;10.25;1.60;;;15.00;59.30;;;;;;5052397;28;20048;-71
2021/05/22 01:40:54;;;;;;;4.55;1.67;;;15.00;59.50;;;;;;5066401;28;20398;-71
2021/05/22 01:43:20;;;;;;;8.02;2.60;;;15.00;59.40;;;;;;5053266;28;20036;-71
2021/05/22 01:45:49;;;;;;;7.05;1.58;;;15.00;59.30;;;;;;5064573;28;20112;-71
2021/05/22 01:48:17;;;;;;;6.93;1.67;;;15.00;59.30;;;;;;5061445;28;20489;-71
2021/05/22 01:50:48;;;;;;;5.13;1.70;;;14.90;59.40;;;;;;5055562;28;20032;-71
2021/05/22 01:53:16;;;;;;;5.70;1.70;;;14.90;59.40;;;;;;5066506;28;20023;-71
2021/05/22 01:55:44;;;;;;;8.18;2.08;;;14.90;59.60;;;;;;5065877;28;20037;-71
2021/05/22 01:58:11;;;;;;;5.03;1.52;;;14.90;59.70;;;;;;5062087;28;20048;-71
2021/05/22 02:00:37;;;;;;;7.50;1.77;;;14.90;59.70;;;;;;5054720;28;20410;-71
2021/05/22 02:03:35;;;;;;;8.63;2.17;;;14.90;59.80;;;;;;5051105;28;20040;-71
2021/05/22 02:06:04;;;;;;;7.30;1.95;;;14.90;59.90;;;;;;5056450;28;20067;-71
2021/05/22 02:08:33;;;;;;;4.63;1.38;;;14.90;59.80;;;;;;5059785;28;20036;-71
2021/05/22 02:10:59;;;;;;;8.32;1.90;;;14.90;59.90;;;;;;5052536;28;20536;-72
2021/05/22 02:13:25;;;;;;;5.68;1.80;;;14.90;59.90;;;;;;5059382;28;20116;-70
2021/05/22 02:15:57;;;;;;;6.70;2.67;;;14.90;60.70;;;;;;5065665;28;20123;-71
2021/05/22 02:18:25;;;;;;;5.65;2.00;;;14.90;60.10;;;;;;5050956;28;20524;-71
2021/05/22 02:20:54;;;;;;;6.45;2.05;;;14.90;60.10;;;;;;5083280;28;20121;-72
2021/05/22 02:23:22;;;;;;;10.00;2.08;;;14.90;60.20;;;;;;5051658;28;20020;-71
2021/05/22 02:25:47;;;;;;;8.43;1.98;;;14.80;60.30;;;;;;5054630;28;20422;-70
2021/05/22 02:28:14;;;;;;;6.65;1.75;;;14.90;60.40;;;;;;5037748;28;20097;-71
2021/05/22 02:30:42;;;;;;;4.25;1.70;;;14.90;60.40;;;;;;5048921;28;20048;-72
2021/05/22 02:33:11;;;;;;;5.63;1.65;;;14.80;60.40;;;;;;5049413;28;20487;-72
2021/05/22 02:35:41;;;;;;;4.15;1.63;;;14.80;60.50;;;;;;5050429;28;20052;-71
2021/05/22 02:38:10;;;;;;;8.10;2.00;;;14.90;60.40;;;;;;5054743;28;20398;-71
2021/05/22 02:40:38;;;;;;;4.28;1.58;;;14.80;60.60;;;;;;5051017;28;20100;-70
2021/05/22 02:43:07;;;;;;;4.68;1.90;;;14.80;60.70;;;;;;5050204;28;20037;-71
2021/05/22 02:45:36;;;;;;;6.55;1.70;;;14.80;60.90;;;;;;5064715;28;20120;-71
2021/05/22 02:48:04;;;;;;;7.43;1.50;;;14.70;61.20;;;;;;5065033;28;20068;-71
2021/05/22 02:50:31;;;;;;;5.22;1.92;;;14.70;61.40;;;;;;5050211;28;20554;-71
2021/05/22 02:52:59;;;;;;;6.18;1.63;;;14.70;62.10;;;;;;5083791;28;20025;-72
2021/05/22 02:55:25;;;;;;;5.07;1.73;;;14.70;61.60;;;;;;5063421;28;20085;-72
2021/05/22 02:57:52;;;;;;;3.90;1.20;;;14.80;61.60;;;;;;5057649;28;21056;-71
2021/05/22 03:00:20;;;;;;;5.38;1.50;;;14.80;61.50;;;;;;5052239;28;20096;-72
2021/05/22 03:02:46;;;;;;;5.55;1.27;;;14.90;61.40;;;;;;5064637;28;20045;-71
2021/05/22 03:05:13;;;;;;;6.10;1.55;;;14.80;61.50;;;;;;5051098;28;20455;-71
2021/05/22 03:07:39;;;;;;;4.95;1.48;;;14.70;61.60;;;;;;5067561;28;20043;-71
2021/05/22 03:10:06;;;;;;;8.43;2.03;;;14.70;61.80;;;;;;5059536;28;20040;-71
2021/05/22 03:12:34;;;;;;;5.95;1.92;;;14.70;62.00;;;;;;5059235;28;20036;-69
2021/05/22 03:15:00;;;;;;;4.93;1.52;;;14.70;62.50;;;;;;5056305;28;20044;-69
2021/05/22 03:17:26;;;;;;;5.45;1.60;;;14.70;62.60;;;;;;5057954;28;20044;-69
2021/05/22 03:19:51;;;;;;;4.35;1.60;;;14.70;62.90;;;;;;5095631;28;20417;-69
2021/05/22 03:22:17;;;;;;;4.97;1.30;;;14.70;62.90;;;;;;5054668;28;20435;-69
2021/05/22 03:24:43;;;;;;;5.00;2.10;;;14.60;62.80;;;;;;5062034;28;20033;-69
2021/05/22 03:27:09;;;;;;;4.53;1.40;;;14.60;62.80;;;;;;5051013;28;20506;-70
2021/05/22 03:29:35;;;;;;;4.55;1.40;;;14.70;62.70;;;;;;5049416;28;20040;-69
2021/05/22 03:32:01;;;;;;;6.80;1.75;;;14.70;62.50;;;;;;5054187;28;20032;-69
2021/05/22 03:34:27;;;;;;;7.38;2.40;;;14.80;62.40;;;;;;5049316;28;20043;-69
2021/05/22 03:36:52;;;;;;;5.35;1.65;;;14.70;62.30;;;;;;5062067;28;20126;-69
2021/05/22 03:39:18;;;;;;;4.70;1.70;;;14.70;62.10;;;;;;5051604;28;20095;-68
2021/05/22 03:41:44;;;;;;;3.80;1.10;;;14.70;62.10;;;;;;5061118;28;20056;-69
2021/05/22 03:44:10;;;;;;;4.25;1.27;;;14.70;62.10;;;;;;5063839;28;20031;-69
2021/05/22 03:46:36;;;;;;;3.42;1.25;;;14.80;62.10;;;;;;5050086;28;20033;-68
2021/05/22 03:49:01;;;;;;;6.90;1.77;;;14.80;62.00;;;;;;5051418;28;20394;-69
2021/05/22 03:51:27;;;;;;;4.75;1.48;;;14.80;62.00;;;;;;5048619;28;20124;-69
2021/05/22 03:53:53;;;;;;;6.15;1.98;;;14.80;61.90;;;;;;5058094;28;20041;-69
2021/05/22 03:56:19;;;;;;;6.05;1.95;;;14.90;61.80;;;;;;5063644;28;20024;-70
2021/05/22 03:58:44;;;;;;;7.65;1.58;;;14.90;61.80;;;;;;5055285;28;20544;-69
2021/05/22 04:01:10;;;;;;;5.75;1.38;;;14.90;61.80;;;;;;5058570;28;20051;-69
2021/05/22 04:03:36;;;;;;;4.57;1.70;;;14.80;61.90;;;;;;5049432;28;20055;-71
2021/05/22 04:06:02;;;;;;;5.63;1.50;;;14.80;62.00;;;;;;5087564;28;20033;-71
2021/05/22 04:08:28;;;;;;;6.47;1.65;;;14.80;62.10;;;;;;5066087;28;20066;-71
2021/05/22 04:10:53;;;;;;;7.43;1.30;;;14.90;62.20;;;;;;5072052;28;20049;-71
2021/05/22 04:13:19;;;;;;;6.72;1.77;;;14.90;62.20;;;;;;5056207;28;20886;-71
2021/05/22 04:15:45;;;;;;;7.55;1.73;;;14.90;62.30;;;;;;5067448;28;20082;-70
2021/05/22 04:18:11;;;;;;;3.90;1.52;;;14.90;62.20;;;;;;5055573;28;20083;-70
2021/05/22 04:20:37;;;;;;;8.15;2.13;;;14.90;62.30;;;;;;5061284;28;20071;-71
2021/05/22 04:23:03;;;;;;;4.35;1.60;;;14.90;62.20;;;;;;5068897;28;20033;-71
2021/05/22 04:25:28;;;;;;;6.32;1.88;;;14.90;62.30;;;;;;5052625;28;20029;-72
2021/05/22 04:27:54;;;;;;;5.60;2.40;;;14.90;62.40;;;;;;5056971;28;20033;-71
2021/05/22 04:30:20;;;;;;;6.45;2.00;;;14.90;62.60;;;;;;5064971;28;20043;-71
2021/05/22 04:32:46;;;;;;;6.47;1.88;;;14.80;63.00;;;;;;5054092;28;20036;-71
2021/05/22 04:35:12;;;;;;;4.28;1.52;;;14.90;63.20;;;;;;5051954;28;20115;-71
2021/05/22 04:37:38;;;;;;;6.35;1.88;;;14.90;63.50;;;;;;5053625;28;20101;-71
2021/05/22 04:40:05;;;;;;;3.78;1.42;;;14.90;64.00;;;;;;5068484;28;20059;-70
2021/05/22 04:42:30;;;;;;;7.88;1.50;;;14.80;64.30;;;;;;5063428;28;20112;-71
2021/05/22 04:44:56;;;;;;;8.27;1.92;;;14.80;64.70;;;;;;5066151;28;20154;-71
2021/05/22 04:47:22;;;;;;;5.55;1.60;;;14.80;65.10;;;;;;5059964;28;20029;-72
2021/05/22 04:49:47;;;;;;;5.85;1.70;;;14.80;65.30;;;;;;5046352;28;20068;-71
2021/05/22 04:52:13;;;;;;;7.10;1.90;;;14.80;65.50;;;;;;5058979;28;20443;-71
2021/05/22 04:54:39;;;;;;;7.20;2.17;;;14.80;65.60;;;;;;5070622;28;20020;-71
2021/05/22 04:57:05;;;;;;;6.97;2.17;;;14.80;66.00;;;;;;5065868;28;20032;-72
2021/05/22 04:59:31;;;;;;;5.28;2.05;;;14.80;66.40;;;;;;5059414;28;20033;-71
2021/05/22 05:01:56;;;;;;;8.10;2.35;;;14.70;66.80;;;;;;5064857;28;20029;-72
2021/05/22 05:04:22;;;;;;;5.60;2.00;;;14.70;67.40;;;;;;5069147;28;20032;-71
2021/05/22 05:06:48;;;;;;;7.07;1.58;;;14.70;67.90;;;;;;5052731;28;20029;-71
2021/05/22 05:09:13;;;;;;;6.18;2.30;;;14.60;68.10;;;;;;5066917;28;20443;-71
2021/05/22 05:11:39;;;;;;;9.18;2.05;;;14.60;68.40;;;;;;5054360;28;20119;-71
2021/05/22 05:14:05;;;;;;;10.30;2.88;;;14.60;68.50;;;;;;5062787;28;20635;-71
2021/05/22 05:16:31;;;;;;;6.70;2.30;;;14.60;68.90;;;;;;5051323;28;20032;-71
2021/05/22 05:18:56;;;;;;;9.98;2.38;;;14.50;69.20;;;;;;5063371;28;20068;-70
2021/05/22 05:21:22;;;;;;;6.20;1.75;;;14.50;69.20;;;;;;5064040;28;20039;-71
2021/05/22 05:23:48;;;;;;;9.70;2.35;;;14.50;69.50;;;;;;5056118;28;20043;-71
2021/05/22 05:26:14;;;;;;;8.50;2.35;;;14.40;69.60;;;;;;5059978;28;20041;-71
2021/05/22 05:28:39;;;;;;;5.43;1.98;;;14.40;70.00;;;;;;5060944;28;20044;-71
2021/05/22 05:31:06;;;;;;;8.73;2.50;;;14.40;70.20;;;;;;5060370;28;20446;-71
2021/05/22 05:33:32;;;;;;;8.32;1.83;;;14.40;70.30;;;;;;5055856;28;20051;-70
2021/05/22 05:35:57;;;;;;;6.90;2.30;;;14.40;70.80;;;;;;5051929;28;20093;-70
2021/05/22 05:38:24;;;;;;;5.55;1.75;;;14.30;71.20;;;;;;5059700;28;20032;-71
2021/05/22 05:40:50;;;;;;;4.95;1.85;;;14.30;71.40;;;;;;5063372;28;20040;-70
2021/05/22 05:43:18;;;;;;;6.60;1.85;;;14.30;71.60;;;;;;5052255;28;20412;-70
2021/05/22 05:45:44;;;;;;;7.88;2.38;;;14.30;71.80;;;;;;5033203;28;20097;-70
2021/05/22 05:48:10;;;;;;;6.15;1.90;;;14.40;71.90;;;;;;5051327;28;20045;-71
2021/05/22 05:50:36;;;;;;;8.68;2.65;;;14.40;72.00;;;;;;5061264;28;20163;-70
2021/05/22 05:53:02;;;;;;;8.32;2.40;;;14.40;72.20;;;;;;5059696;28;20029;-71
2021/05/22 05:55:28;;;;;;;7.28;2.13;;;14.40;72.30;;;;;;5057629;28;20537;-69
2021/05/22 05:57:56;;;;;;;8.88;2.45;;;14.30;72.30;;;;;;5070549;28;20058;-69
2021/05/22 06:00:23;;;;;;;6.63;1.98;;;14.40;72.70;;;;;;5051046;28;20048;-70
2021/05/22 06:02:49;;;;;;;4.72;1.67;;;14.30;73.00;;;;;;5056125;28;20025;-69
2021/05/22 06:05:15;;;;;;;9.55;2.67;;;14.30;73.40;;;;;;5054909;28;20486;-69
2021/05/22 06:07:42;;;;;;;8.30;2.10;;;14.20;73.60;;;;;;5066581;28;20036;-70
2021/05/22 06:10:09;;;;;;;6.93;1.80;;;14.20;73.80;;;;;;5060552;28;20048;-69
2021/05/22 06:12:35;;;;;;;7.43;2.13;;;14.30;73.80;;;;;;5051718;28;20037;-69
2021/05/22 06:17:56;;;;;;;8.63;1.92;;;14.20;74.00;;;;;;5050673;28;20048;-70
2021/05/22 06:20:22;;;;;;;9.50;2.08;;;14.20;74.00;;;;;;5057056;28;20086;-72
2021/05/22 06:22:48;;;;;;;7.75;2.20;;;14.20;74.60;;;;;;5055594;28;20041;-70
2021/05/22 06:25:14;;;;;;;5.57;2.08;;;14.20;74.40;;;;;;5056600;28;20029;-70
2021/05/22 06:27:40;;;;;;;6.85;2.28;;;14.20;74.60;;;;;;5064533;28;20036;-71
2021/05/22 06:30:08;;;;;;;7.53;2.53;;;14.30;74.70;;;;;;5056139;28;20033;-72
2021/05/22 06:32:35;;;;;;;8.80;3.55;;;14.30;74.60;;;;;;5057362;28;20039;-71
2021/05/22 06:35:00;;;;;;;14.43;4.63;;;14.40;74.50;;;;;;5054644;28;20065;-71
2021/05/22 06:37:27;;;;;;;8.55;2.90;;;14.30;74.70;;;;;;5053736;28;20033;-72
2021/05/22 06:39:53;;;;;;;10.93;2.70;;;14.30;75.10;;;;;;5062884;28;20032;-71
2021/05/22 06:42:19;;;;;;;10.38;3.45;;;14.20;75.20;;;;;;5055575;28;20108;-72
2021/05/22 06:44:54;;;;;;;6.07;2.20;;;14.20;75.60;;;;;;5050633;28;20043;-71
2021/05/22 06:47:20;;;;;;;7.38;2.33;;;14.20;75.60;;;;;;5050681;28;20450;-72
2021/05/22 06:49:45;;;;;;;7.78;2.33;;;14.30;75.60;;;;;;5060564;28;20117;-72
2021/05/22 06:52:11;;;;;;;4.97;2.25;;;14.30;75.70;;;;;;5064387;28;20047;-71
2021/05/22 06:54:37;;;;;;;6.57;2.05;;;14.30;75.60;;;;;;5054011;28;20025;-72
2021/05/22 06:57:03;;;;;;;5.60;2.10;;;14.30;75.80;;;;;;5083409;28;20075;-71
2021/05/22 06:59:29;;;;;;;9.65;2.08;;;14.30;75.90;;;;;;5050033;28;20498;-72
2021/05/22 07:01:54;;;;;;;6.15;1.90;;;14.30;76.00;;;;;;5056160;28;20048;-71
2021/05/22 07:04:20;;;;;;;8.80;2.17;;;14.40;76.10;;;;;;5063105;28;20048;-72
2021/05/22 07:06:46;;;;;;;7.53;2.05;;;14.30;76.10;;;;;;5049473;28;20135;-72
2021/05/22 07:09:11;;;;;;;7.93;2.97;;;14.30;76.10;;;;;;5055237;28;20044;-71
2021/05/22 07:11:37;;;;;;;6.45;3.03;;;14.40;76.20;;;;;;5048729;28;20134;-72
2021/05/22 07:14:03;;;;;;;7.13;2.80;;;14.30;76.20;;;;;;5055724;28;20196;-71
2021/05/22 07:16:29;;;;;;;5.88;2.17;;;14.40;76.50;;;;;;5062557;28;20025;-71
2021/05/22 07:18:54;;;;;;;5.63;2.22;;;14.30;76.40;;;;;;5064847;28;20028;-69
2021/05/22 07:21:20;;;;;;;6.10;1.98;;;14.30;76.40;;;;;;5064106;28;20382;-72
2021/05/22 07:23:46;;;;;;;12.90;2.28;;;14.30;76.70;;;;;;5061153;28;20478;-71
2021/05/22 07:26:12;;;;;;;7.47;2.50;;;14.30;76.60;;;;;;5064537;28;20041;-72
2021/05/22 07:28:37;;;;;;;9.63;2.67;;;14.30;76.80;;;;;;5056076;28;20422;-72
2021/05/22 07:31:03;;;;;;;7.72;2.55;;;14.40;76.80;;;;;;5063317;28;20040;-72
2021/05/22 07:33:33;;;;;;;8.85;2.38;;;14.40;76.80;;;;;;5055128;28;20493;-72
2021/05/22 07:35:59;;;;;;;8.27;2.25;;;14.40;77.10;;;;;;5062764;28;20391;-71
2021/05/22 07:38:25;;;;;;;8.75;2.90;;;14.40;77.10;;;;;;5056713;28;20067;-72
2021/05/22 07:40:50;;;;;;;6.32;2.38;;;14.40;77.10;;;;;;5092765;28;20054;-71
2021/05/22 07:43:20;;;;;;;6.82;2.33;;;14.40;77.00;;;;;;5061518;28;20154;-71
2021/05/22 07:45:46;;;;;;;8.75;2.53;;;14.50;77.10;;;;;;5049453;28;20135;-72
2021/05/22 07:48:14;;;;;;;8.10;2.42;;;14.50;77.10;;;;;;5053513;28;20039;-71
2021/05/22 07:50:40;;;;;;;9.43;2.63;;;14.50;76.90;;;;;;5067010;28;20028;-71
2021/05/22 07:53:05;;;;;;;8.50;2.60;;;14.50;76.90;;;;;;5053357;28;20036;-72
2021/05/22 07:55:31;;;;;;;8.30;2.42;;;14.50;77.00;;;;;;5055221;28;20127;-71
2021/05/22 07:57:57;;;;;;;6.63;2.22;;;14.60;77.10;;;;;;5060586;28;20037;-73
2021/05/22 08:00:23;;;;;;;8.57;2.35;;;14.50;77.10;;;;;;5051849;28;20467;-72
2021/05/22 08:02:48;;;;;;;5.07;2.20;;;14.50;77.20;;;;;;5061260;28;20476;-72
2021/05/22 08:05:14;;;;;;;6.50;2.17;;;14.60;77.40;;;;;;5057805;28;20036;-69
2021/05/22 08:07:41;;;;;;;4.93;1.92;;;14.60;77.50;;;;;;5058754;28;20112;-71
2021/05/22 08:10:07;;;;;;;5.55;2.60;;;14.70;77.40;;;;;;5052665;28;20496;-71
2021/05/22 08:12:34;;;;;;;6.13;2.72;;;14.70;76.90;;;;;;5062723;28;20025;-72
2021/05/22 08:15:00;;;;;;;5.03;2.17;;;14.70;77.00;;;;;;5060282;28;20090;-71
2021/05/22 08:17:25;;;;;;;4.28;2.00;;;14.70;77.00;;;;;;5057439;28;20032;-71
2021/05/22 08:19:51;;;;;;;7.18;2.53;;;14.70;77.10;;;;;;5058462;28;20178;-71
2021/05/22 08:22:17;;;;;;;5.93;2.00;;;14.80;77.20;;;;;;5064207;28;20040;-74
2021/05/22 08:24:42;;;;;;;5.07;1.98;;;14.80;77.10;;;;;;5043944;28;20459;-73
2021/05/22 08:27:08;;;;;;;4.13;1.98;;;14.80;76.90;;;;;;5057008;28;20033;-73
2021/05/22 08:29:34;;;;;;;5.53;2.00;;;14.80;76.90;;;;;;5043633;28;20036;-72
2021/05/22 08:32:00;;;;;;;4.30;1.90;;;14.90;77.10;;;;;;5060387;28;20074;-72
2021/05/22 08:34:27;;;;;;;4.07;2.20;;;14.90;77.20;;;;;;5062795;28;20042;-72
2021/05/22 08:36:53;;;;;;;6.55;2.40;;;14.90;77.40;;;;;;5057158;28;20035;-72
2021/05/22 08:39:19;;;;;;;6.47;2.58;;;14.90;77.40;;;;;;5058928;28;20534;-73
2021/05/22 08:41:45;;;;;;;4.43;2.03;;;14.90;77.60;;;;;;5050293;28;20116;-72
2021/05/22 08:44:11;;;;;;;5.55;2.25;;;14.90;77.80;;;;;;5053395;28;20033;-72
2021/05/22 08:46:37;;;;;;;4.00;2.25;;;14.80;77.90;;;;;;5065522;28;20032;-73
2021/05/22 08:49:05;;;;;;;4.20;1.90;;;14.70;77.90;;;;;;5054296;28;20090;-72
2021/05/22 08:51:31;;;;;;;8.30;2.63;;;14.80;78.20;;;;;;5058877;28;20036;-72
2021/05/22 08:53:57;;;;;;;7.68;2.75;;;14.80;78.10;;;;;;5055419;28;20079;-72
2021/05/22 08:56:22;;;;;;;4.90;2.10;;;14.80;78.20;;;;;;5049289;28;20041;-72
2021/05/22 08:58:48;;;;;;;5.88;2.33;;;14.80;78.20;;;;;;5053481;28;20540;-72
2021/05/22 09:01:14;;;;;;;7.25;2.53;;;14.90;78.30;;;;;;5060337;28;20447;-72
2021/05/22 09:03:40;;;;;;;6.18;2.60;;;14.90;78.30;;;;;;5061503;28;20044;-72
2021/05/22 09:06:06;;;;;;;6.03;2.65;;;14.90;78.30;;;;;;5071011;28;20028;-72
2021/05/22 09:08:32;;;;;;;5.30;2.05;;;15.00;78.40;;;;;;5055140;28;20037;-72
2021/05/22 09:11:02;;;;;;;6.32;2.40;;;15.00;78.30;;;;;;5053715;28;20059;-72
2021/05/22 09:13:30;;;;;;;8.48;3.13;;;14.90;78.30;;;;;;5064714;28;20025;-72
2021/05/22 09:16:02;;;;;;;5.38;2.13;;;14.90;78.50;;;;;;5070838;28;20035;-72
2021/05/22 09:18:36;;;;;;;6.00;2.45;;;14.80;78.60;;;;;;5060073;28;20028;-73
2021/05/22 09:21:08;;;;;;;6.78;2.58;;;14.90;78.80;;;;;;5065689;28;20040;-72
2021/05/22 09:23:36;;;;;;;5.53;2.63;;;15.00;78.70;;;;;;5061429;28;20074;-73
2021/05/22 09:26:08;;;;;;;5.90;2.33;;;15.00;78.60;;;;;;5051479;28;20036;-72
2021/05/22 09:28:35;;;;;;;5.60;2.85;;;15.00;78.60;;;;;;5058985;28;20064;-72
2021/05/22 09:31:03;;;;;;;4.60;2.83;;;15.10;78.50;;;;;;5067013;28;20417;-73
2021/05/22 09:33:30;;;;;;;6.88;3.00;;;15.10;78.50;;;;;;5062597;28;20058;-71
2021/05/22 09:36:01;;;;;;;9.50;3.38;;;15.10;78.50;;;;;;5069476;28;20016;-71
2021/05/22 09:38:39;;;;;;;5.97;3.08;;;15.10;78.50;;;;;;5059574;28;20082;-71
2021/05/22 09:41:15;;;;;;;4.60;2.45;;;15.20;78.60;;;;;;5062301;28;20097;-73
2021/05/22 09:43:42;;;;;;;6.10;3.40;;;15.30;78.50;;;;;;5056366;28;20105;-75
2021/05/22 09:46:10;;;;;;;7.15;2.95;;;15.40;78.40;;;;;;5058759;28;20044;-74
2021/05/22 09:48:36;;;;;;;7.15;3.72;;;15.40;78.10;;;;;;5085077;28;20505;-71
2021/05/22 09:51:03;;;;;;;5.72;2.45;;;15.40;78.10;;;;;;5064667;28;20043;-72
2021/05/22 09:53:37;;;;;;;6.47;2.92;;;15.40;78.20;;;;;;5064253;28;20048;-74
2021/05/22 09:56:24;;;;;;;5.65;3.63;;;15.40;78.30;;;;;;5059235;28;20052;-74
2021/05/22 09:58:58;;;;;;;5.47;2.90;;;15.40;78.40;;;;;;5060639;28;20456;-74
2021/05/22 10:01:29;;;;;;;8.20;3.35;;;15.40;78.20;;;;;;5058428;28;20033;-74
2021/05/22 10:03:55;;;;;;;5.95;3.17;;;15.40;78.40;;;;;;5065373;28;20056;-70
2021/05/22 10:06:38;;;;;;;7.28;3.92;;;15.50;78.30;;;;;;5055603;28;20063;-71
2021/05/22 10:09:12;;;;;;;6.03;3.10;;;15.50;78.00;;;;;;5054127;28;20055;-75
2021/05/22 10:12:00;;;;;;;6.15;3.53;;;15.50;77.80;;;;;;5063627;28;20035;-75
2021/05/22 10:14:27;;;;;;;5.72;3.17;;;15.50;78.00;;;;;;5063276;28;20517;-75
2021/05/22 10:16:54;;;;;;;6.47;3.20;;;15.50;78.30;;;;;;5066187;28;20053;-72
2021/05/22 10:19:20;;;;;;;10.13;3.83;;;15.60;77.80;;;;;;5054657;28;20029;-74
2021/05/22 10:21:46;;;;;;;6.20;3.35;;;15.50;77.70;;;;;;5052968;28;20035;-74
2021/05/22 10:24:13;;;;;;;5.60;3.50;;;15.50;77.70;;;;;;5062423;28;20028;-74
2021/05/22 10:26:40;;;;;;;5.10;3.17;;;15.50;77.80;;;;;;5063168;28;20090;-74
2021/05/22 10:29:06;;;;;;;5.55;3.20;;;15.60;77.90;;;;;;5059076;28;20040;-71
2021/05/22 10:31:39;;;;;;;5.72;3.20;;;15.60;77.80;;;;;;5065551;28;20440;-74
2021/05/22 10:34:12;;;;;;;6.13;3.38;;;15.60;77.50;;;;;;5058387;28;20025;-72
2021/05/22 10:36:48;;;;;;;7.55;4.00;;;15.70;77.40;;;;;;5068055;28;20032;-74
2021/05/22 10:39:43;;;;;;;6.28;4.18;;;15.70;77.50;;;;;;5057271;28;20119;-74
2021/05/22 10:42:21;;;;;;;4.78;3.13;;;15.80;77.40;;;;;;5057375;28;20113;-73
2021/05/22 10:44:47;;;;;;;5.70;3.60;;;15.70;77.10;;;;;;5064332;28;20437;-74
2021/05/22 10:47:16;;;;;;;5.38;3.20;;;15.80;77.10;;;;;;5065605;28;20033;-75
2021/05/22 10:49:53;;;;;;;7.55;3.75;;;15.80;77.30;;;;;;5059196;28;20036;-74
2021/05/22 10:52:24;;;;;;;6.35;3.63;;;15.90;77.40;;;;;;5067412;28;20035;-73
2021/05/22 10:55:00;;;;;;;5.53;3.53;;;16.00;77.00;;;;;;5058551;28;20028;-71
2021/05/22 10:57:27;;;;;;;6.25;3.80;;;15.90;76.90;;;;;;5068937;28;20096;-70
2021/05/22 11:00:25;;;;;;;5.15;3.08;;;15.90;76.90;;;;;;5065129;28;20474;-70
2021/05/22 11:02:58;;;;;;;6.78;3.75;;;15.90;77.20;;;;;;5052357;28;20037;-71
2021/05/22 11:05:26;;;;;;;6.93;3.60;;;15.90;76.80;;;;;;5051026;28;20085;-71
2021/05/22 11:08:06;;;;;;;5.90;3.00;;;16.00;77.10;;;;;;5059263;28;20467;-70
2021/05/22 11:10:36;;;;;;;5.05;3.22;;;15.90;77.50;;;;;;5053240;28;20475;-71
2021/05/22 11:13:03;;;;;;;5.68;3.55;;;16.00;77.40;;;;;;5056314;28;20071;-71
2021/05/22 11:15:40;;;;;;;6.30;3.55;;;16.10;77.50;;;;;;5052070;28;20517;-70
2021/05/22 11:18:07;;;;;;;5.68;3.38;;;16.20;77.70;;;;;;5065238;28;20390;-71
2021/05/22 11:20:34;;;;;;;6.30;3.58;;;16.30;77.40;;;;;;5065188;28;20471;-71
2021/05/22 11:23:01;;;;;;;5.93;3.38;;;16.40;77.30;;;;;;5050636;28;20048;-71
2021/05/22 11:25:48;;;;;;;5.97;3.67;;;16.40;77.00;;;;;;5048738;28;20378;-71
2021/05/22 11:28:20;;;;;;;7.50;3.45;;;16.40;77.40;;;;;;5054105;28;20064;-71
2021/05/22 11:30:56;;;;;;;4.70;3.45;;;16.40;77.00;;;;;;5061233;28;20098;-71
2021/05/22 11:33:22;;;;;;;4.93;3.38;;;16.30;77.20;;;;;;5062911;28;20074;-70
2021/05/22 11:35:50;;;;;;;6.72;3.70;;;16.30;77.40;;;;;;5060867;28;20422;-71
2021/05/22 11:38:19;;;;;;;5.80;3.40;;;16.20;77.70;;;;;;5061676;28;20124;-71
2021/05/22 11:40:45;;;;;;;5.45;3.65;;;16.20;78.00;;;;;;5055109;28;20033;-70
2021/05/22 11:43:13;;;;;;;6.10;3.70;;;16.10;78.20;;;;;;5061153;28;20443;-71
2021/05/22 11:45:54;;;;;;;5.28;3.67;;;16.00;78.50;;;;;;5054513;28;20471;-70
2021/05/22 11:48:47;;;;;;;6.82;3.20;;;15.80;78.90;;;;;;5050297;28;20438;-70
2021/05/22 11:51:19;;;;;;;5.53;2.60;;;15.70;79.00;;;;;;5053105;28;20037;-71
2021/05/22 11:54:08;;;;;;;7.53;2.55;;;15.80;79.00;;;;;;5059843;28;20013;-71
2021/05/22 11:56:36;;;;;;;4.05;2.42;;;15.90;79.30;;;;;;5064740;28;20498;-71
2021/05/22 11:59:03;;;;;;;5.18;2.92;;;16.00;79.00;;;;;;5066302;28;20454;-71
2021/05/22 12:01:38;;;;;;;6.07;2.70;;;16.30;78.90;;;;;;5060508;28;20470;-71
2021/05/22 12:04:12;;;;;;;6.65;3.00;;;16.40;78.50;;;;;;5060335;28;20072;-71
2021/05/22 12:06:43;;;;;;;7.75;3.50;;;16.60;78.10;;;;;;5050392;28;20351;-71
2021/05/22 12:09:10;;;;;;;5.00;2.95;;;16.70;77.90;;;;;;5049918;28;20128;-71
2021/05/22 12:11:42;;;;;;;4.60;3.03;;;16.80;77.30;;;;;;5048569;28;20130;-71
2021/05/22 12:14:08;;;;;;;5.27;3.10;;;16.80;77.00;;;;;;5051479;28;20394;-71
2021/05/22 12:16:35;;;;;;;4.47;2.83;;;16.70;76.70;;;;;;5050204;28;20053;-71
2021/05/22 12:19:18;;;;;;;4.47;2.63;;;16.60;76.90;;;;;;5038164;28;20048;-71
2021/05/22 12:21:52;;;;;;;5.05;3.10;;;16.40;77.20;;;;;;5054688;28;20100;-72
2021/05/22 12:24:19;;;;;;;5.45;2.95;;;16.40;77.40;;;;;;5059465;28;20448;-71
2021/05/22 12:26:54;;;;;;;5.65;2.97;;;16.40;77.30;;;;;;5054797;28;20028;-71
2021/05/22 12:29:22;;;;;;;4.80;3.20;;;16.40;77.40;;;;;;5055394;28;20028;-71
2021/05/22 12:31:59;;;;;;;6.22;3.60;;;16.50;77.50;;;;;;5060126;28;20074;-71
2021/05/22 12:34:36;;;;;;;6.55;3.58;;;16.60;77.50;;;;;;5060777;28;20068;-71
2021/05/22 12:37:21;;;;;;;7.47;3.50;;;16.70;76.80;;;;;;5066985;28;20029;-71
2021/05/22 12:39:49;;;;;;;7.63;4.07;;;16.60;76.80;;;;;;5070280;28;20040;-71
2021/05/22 12:42:24;;;;;;;6.90;4.30;;;16.70;76.50;;;;;;5064456;28;20492;-71
2021/05/22 12:44:55;;;;;;;7.72;4.35;;;16.70;76.50;;;;;;5067761;28;20028;-71
2021/05/22 12:47:24;;;;;;;7.00;4.00;;;16.70;76.30;;;;;;5070695;28;20036;-71
2021/05/22 12:50:05;;;;;;;6.65;4.15;;;16.80;76.00;;;;;;5101242;28;20048;-71
2021/05/22 12:52:31;;;;;;;10.02;4.53;;;16.60;76.50;;;;;;5066156;28;20039;-71